Time;durP1;ratioP1;P1;durP2;ratioP2;P2;SDS_P1;SDS_P2;PMS_P1;PMS_P2;Temp;Humidity;BMP_temperature;BMP_pressure;BME280_temperature;BME280_humidity;BME280_pressure;Samples;Min_cycle;Max_cycle;Signal;HPM_P1;HPM_P2
2023/05/31 00:02:21;;;;;;;4.85;3.65;;;;;;;11.28;88.13;102734.09;6248807;22;20013;-81
2023/05/31 00:04:47;;;;;;;6.68;4.55;;;;;;;11.25;88.68;102738.31;6247834;22;20023;-81
2023/05/31 00:07:14;;;;;;;6.68;3.78;;;;;;;11.24;88.44;102738.72;6249411;22;20486;-82
2023/05/31 00:09:41;;;;;;;8.32;3.67;;;;;;;11.21;89.02;102742.16;6249246;22;20099;-81
2023/05/31 00:12:08;;;;;;;4.15;3.72;;;;;;;11.17;89.04;102739.56;6249170;22;20019;-81
2023/05/31 00:14:34;;;;;;;3.83;3.53;;;;;;;11.16;89.47;102737.28;6246866;22;20017;-81
2023/05/31 00:17:01;;;;;;;5.43;3.55;;;;;;;11.11;88.83;102732.38;6247344;22;20028;-81
2023/05/31 00:19:30;;;;;;;5.50;3.70;;;;;;;11.09;89.59;102740.00;6248882;22;20016;-81
2023/05/31 00:21:57;;;;;;;5.32;3.80;;;;;;;11.08;89.49;102739.25;6247755;22;20020;-81
2023/05/31 00:24:23;;;;;;;7.70;4.07;;;;;;;11.03;89.85;102735.09;6248315;22;20350;-81
2023/05/31 00:26:50;;;;;;;5.43;3.65;;;;;;;11.02;89.91;102738.91;6247535;22;20069;-81
2023/05/31 00:29:18;;;;;;;5.38;3.97;;;;;;;10.98;90.50;102738.19;6248366;22;20051;-81
2023/05/31 00:31:45;;;;;;;5.35;4.15;;;;;;;10.96;90.50;102732.50;6247325;22;20020;-81
2023/05/31 00:34:12;;;;;;;8.00;3.60;;;;;;;10.94;90.39;102732.13;6247394;22;20072;-81
2023/05/31 00:36:38;;;;;;;5.18;4.05;;;;;;;10.90;90.81;102739.38;6248833;22;20020;-81
2023/05/31 00:39:05;;;;;;;4.07;3.78;;;;;;;10.87;90.73;102734.84;6248752;22;20399;-81
2023/05/31 00:41:32;;;;;;;6.00;4.05;;;;;;;10.85;90.97;102723.81;6247082;22;20104;-82
2023/05/31 00:43:58;;;;;;;4.95;4.20;;;;;;;10.85;91.03;102723.06;6248754;22;20098;-80
2023/05/31 00:46:27;;;;;;;5.35;4.10;;;;;;;10.82;91.20;102732.59;6221333;22;20024;-81
2023/05/31 00:48:55;;;;;;;4.78;3.58;;;;;;;10.80;91.11;102737.56;6247275;22;20020;-80
2023/05/31 00:51:24;;;;;;;4.35;3.40;;;;;;;10.77;91.33;102730.38;6246929;22;20016;-81
2023/05/31 00:53:52;;;;;;;4.75;3.47;;;;;;;10.77;91.25;102732.28;6247313;22;20027;-80
2023/05/31 00:56:19;;;;;;;6.80;4.05;;;;;;;10.74;91.45;102733.81;6248721;22;20028;-80
2023/05/31 00:58:47;;;;;;;5.05;4.13;;;;;;;10.68;91.95;102735.38;6245783;22;20035;-80
2023/05/31 01:01:14;;;;;;;4.80;3.92;;;;;;;10.66;91.71;102735.78;6244820;22;20510;-80
2023/05/31 01:03:41;;;;;;;5.18;3.72;;;;;;;10.65;91.64;102731.59;6244696;22;20016;-80
2023/05/31 01:06:08;;;;;;;4.40;4.00;;;;;;;10.62;92.32;102729.72;6244842;22;20031;-80
2023/05/31 01:08:36;;;;;;;5.28;3.95;;;;;;;10.61;92.08;102735.44;6244617;22;20043;-80
2023/05/31 01:11:12;;;;;;;5.55;3.90;;;;;;;10.57;92.42;102732.78;6244719;22;20411;-80
2023/05/31 01:13:50;;;;;;;5.22;3.80;;;;;;;10.57;92.18;102740.00;6246362;22;20013;-80
2023/05/31 01:16:31;;;;;;;4.93;3.83;;;;;;;10.55;92.28;102736.97;6246341;22;20477;-80
2023/05/31 01:19:03;;;;;;;6.57;4.35;;;;;;;10.53;92.69;102736.63;6245096;22;20100;-80
2023/05/31 01:21:44;;;;;;;4.00;3.65;;;;;;;10.50;92.16;102740.06;6246254;22;20013;-80
2023/05/31 01:24:14;;;;;;;4.40;3.90;;;;;;;10.50;92.47;102742.72;6244557;22;20063;-80
2023/05/31 01:26:48;;;;;;;5.75;3.95;;;;;;;10.48;92.34;102745.00;6218627;22;20025;-80
2023/05/31 01:29:20;;;;;;;10.02;4.15;;;;;;;10.45;92.65;102743.88;6246341;22;20024;-80
2023/05/31 01:31:51;;;;;;;4.90;4.07;;;;;;;10.45;92.88;102743.13;6246868;22;20103;-79
2023/05/31 01:34:18;;;;;;;5.07;4.57;;;;;;;10.44;92.57;102738.94;6219408;22;20021;-79
2023/05/31 01:36:45;;;;;;;6.10;3.95;;;;;;;10.41;92.70;102739.72;6219951;22;20375;-81
2023/05/31 01:39:11;;;;;;;5.47;4.00;;;;;;;10.38;92.80;102735.22;6221198;22;20016;-81
2023/05/31 01:41:40;;;;;;;5.00;4.10;;;;;;;10.33;93.24;102728.38;6247486;22;20024;-81
2023/05/31 01:44:08;;;;;;;5.53;4.25;;;;;;;10.32;93.13;102724.22;6246477;22;20012;-81
2023/05/31 01:46:36;;;;;;;6.85;4.15;;;;;;;10.31;92.79;102739.41;6221098;22;20425;-80
2023/05/31 01:49:03;;;;;;;4.75;4.05;;;;;;;10.30;93.00;102743.22;6248539;22;20013;-80
2023/05/31 01:51:32;;;;;;;9.18;4.13;;;;;;;10.26;93.45;102739.81;6220975;22;20017;-80
2023/05/31 01:53:59;;;;;;;4.40;4.00;;;;;;;10.23;93.26;102743.25;6246340;22;20016;-79
2023/05/31 01:56:28;;;;;;;4.68;4.15;;;;;;;10.20;93.39;102744.03;6245145;22;20040;-80
2023/05/31 01:58:56;;;;;;;5.25;4.18;;;;;;;10.19;93.45;102742.53;6176397;22;1053290;-79
2023/05/31 02:01:23;;;;;;;11.85;3.97;;;;;;;10.17;93.80;102744.03;6247232;22;20421;-80
2023/05/31 02:03:51;;;;;;;7.00;4.53;;;;;;;10.14;93.85;102734.91;6223168;22;20017;-80
2023/05/31 02:06:18;;;;;;;4.53;3.95;;;;;;;10.11;93.85;102741.00;6247770;22;20075;-80
2023/05/31 02:08:44;;;;;;;5.50;4.07;;;;;;;10.09;94.10;102729.97;6247736;22;20024;-80
2023/05/31 02:11:11;;;;;;;3.60;3.30;;;;;;;10.06;94.10;102733.41;6247320;22;20012;-80
2023/05/31 02:13:38;;;;;;;6.18;4.13;;;;;;;10.04;94.39;102733.03;6247684;22;20044;-80
2023/05/31 02:16:05;;;;;;;4.47;4.07;;;;;;;10.01;94.22;102723.16;6247547;22;20052;-79
2023/05/31 02:18:32;;;;;;;6.30;3.92;;;;;;;9.98;94.00;102723.97;6247582;22;20083;-80
2023/05/31 02:20:59;;;;;;;5.55;4.35;;;;;;;9.96;94.13;102732.34;6223190;22;20021;-79
2023/05/31 02:23:26;;;;;;;4.85;4.32;;;;;;;9.96;94.46;102742.97;6246482;22;20027;-80
2023/05/31 02:25:53;;;;;;;7.30;3.83;;;;;;;9.92;94.72;102736.91;6248026;22;20485;-79
2023/05/31 02:28:19;;;;;;;4.95;3.88;;;;;;;9.91;94.27;102739.97;6222237;22;20099;-79
2023/05/31 02:30:57;;;;;;;6.65;4.05;;;;;;;9.90;93.98;102736.53;6223163;22;20027;-78
2023/05/31 02:33:24;;;;;;;5.30;3.80;;;;;;;9.89;94.28;102734.25;6221798;22;20024;-79
2023/05/31 02:35:51;;;;;;;4.35;3.85;;;;;;;9.86;94.60;102741.13;6248099;22;20044;-79
2023/05/31 02:38:19;;;;;;;4.72;3.88;;;;;;;9.84;94.42;102737.31;6247110;22;20493;-79
2023/05/31 02:40:46;;;;;;;7.97;4.25;;;;;;;9.82;94.60;102721.75;6248071;22;20031;-79
2023/05/31 02:43:13;;;;;;;6.85;4.50;;;;;;;9.81;94.67;102716.81;6222104;22;20040;-79
2023/05/31 02:45:39;;;;;;;5.75;4.38;;;;;;;9.78;94.65;102721.00;6247351;22;20024;-79
2023/05/31 02:48:07;;;;;;;6.57;3.97;;;;;;;9.75;94.68;102726.31;6247215;22;20462;-79
2023/05/31 02:50:34;;;;;;;4.78;3.70;;;;;;;9.73;94.93;102724.06;6247668;22;20044;-79
2023/05/31 02:53:06;;;;;;;4.22;3.70;;;;;;;9.70;94.53;102720.25;6247095;22;20020;-79
2023/05/31 02:56:04;;;;;;;5.93;4.07;;;;;;;9.70;94.68;102717.59;6232215;22;20451;-79
2023/05/31 02:58:54;;;;;;;4.38;3.55;;;;;;;9.68;94.57;102714.56;6249010;22;20025;-79
2023/05/31 03:01:30;;;;;;;6.93;3.85;;;;;;;9.63;94.87;102714.97;6247331;22;20454;-79
2023/05/31 03:04:25;;;;;;;6.05;3.83;;;;;;;9.63;94.91;102717.63;6212827;22;20021;-79
2023/05/31 03:06:53;;;;;;;6.18;4.30;;;;;;;9.60;94.74;102717.63;6247393;22;20043;-79
2023/05/31 03:09:20;;;;;;;5.13;4.50;;;;;;;9.58;95.05;102717.28;6222036;22;20107;-78
2023/05/31 03:11:47;;;;;;;7.82;4.55;;;;;;;9.54;95.22;102711.97;6247582;22;20027;-79
2023/05/31 03:14:15;;;;;;;6.90;4.60;;;;;;;9.52;95.18;102714.25;6246909;22;20052;-79
2023/05/31 03:16:51;;;;;;;5.03;4.47;;;;;;;9.50;95.43;102707.81;6247807;22;20087;-79
2023/05/31 03:19:18;;;;;;;6.63;4.18;;;;;;;9.50;95.25;102713.13;6247317;22;20009;-79
2023/05/31 03:21:49;;;;;;;5.37;4.63;;;;;;;9.47;95.33;102716.53;6247052;22;20089;-79
2023/05/31 03:24:16;;;;;;;7.38;4.28;;;;;;;9.47;95.51;102701.34;6247121;22;20454;-80
2023/05/31 03:26:45;;;;;;;5.38;4.38;;;;;;;9.46;95.70;102704.38;6247061;22;20108;-79
2023/05/31 03:29:12;;;;;;;4.45;4.05;;;;;;;9.44;95.81;102711.97;6247035;22;20044;-79
2023/05/31 03:31:38;;;;;;;5.97;4.63;;;;;;;9.44;95.99;102709.31;6246763;22;20344;-79
2023/05/31 03:34:05;;;;;;;6.68;4.78;;;;;;;9.42;95.79;102707.06;6246947;22;20012;-79
2023/05/31 03:36:32;;;;;;;6.00;4.72;;;;;;;9.43;95.46;102707.81;6248420;22;20586;-79
2023/05/31 03:39:03;;;;;;;;;;;;;;;9.44;94.68;102710.09;6223805;22;20017;-79
2023/05/31 03:41:30;;;;;;;6.60;4.63;;;;;;;9.42;95.56;102711.59;6247157;22;20003;-79
2023/05/31 03:43:57;;;;;;;4.85;4.18;;;;;;;9.40;96.02;102711.22;6222208;22;20565;-79
2023/05/31 03:46:24;;;;;;;5.57;4.82;;;;;;;9.38;96.19;102718.81;6246515;22;20667;-79
2023/05/31 03:48:53;;;;;;;6.80;5.00;;;;;;;9.38;96.22;102716.94;6222475;22;20017;-79
2023/05/31 03:51:21;;;;;;;5.20;4.70;;;;;;;9.38;96.25;102716.16;6246492;22;20025;-79
2023/05/31 03:53:48;;;;;;;9.13;4.50;;;;;;;9.38;96.23;102716.16;6247470;22;20374;-79
2023/05/31 03:56:16;;;;;;;7.60;4.93;;;;;;;9.38;96.46;102719.59;6222075;22;20039;-79
2023/05/31 03:58:43;;;;;;;6.10;4.95;;;;;;;9.40;96.79;102727.19;6246646;22;20020;-78
2023/05/31 04:01:10;;;;;;;5.07;4.57;;;;;;;9.41;96.55;102726.03;6246690;22;20017;-78
2023/05/31 04:03:37;;;;;;;5.32;4.70;;;;;;;9.40;96.97;102730.59;6247006;22;20023;-78
2023/05/31 04:06:07;;;;;;;6.53;4.45;;;;;;;9.41;96.91;102729.47;6246656;22;20100;-78
2023/05/31 04:08:33;;;;;;;5.28;4.78;;;;;;;9.42;96.81;102733.63;6248822;22;20434;-78
2023/05/31 04:11:00;;;;;;;5.22;4.72;;;;;;;9.44;96.87;102739.31;6249353;22;20013;-78
2023/05/31 04:13:27;;;;;;;8.32;4.88;;;;;;;9.46;97.34;102730.97;6248368;22;20021;-79
2023/05/31 04:15:54;;;;;;;8.27;4.65;;;;;;;9.48;97.13;102731.34;6247261;22;20464;-78
2023/05/31 04:18:20;;;;;;;9.15;5.60;;;;;;;9.50;97.11;102727.16;6246608;22;20021;-78
2023/05/31 04:20:47;;;;;;;10.43;5.38;;;;;;;9.55;97.21;102734.75;6247081;22;20021;-78
2023/05/31 04:23:14;;;;;;;7.22;4.68;;;;;;;9.59;97.08;102734.75;6246846;22;20191;-78
2023/05/31 04:25:40;;;;;;;6.75;5.00;;;;;;;9.63;97.07;102732.81;6247026;22;20025;-79
2023/05/31 04:28:07;;;;;;;9.48;5.57;;;;;;;9.66;96.93;102732.03;6221843;22;20048;-78
2023/05/31 04:30:34;;;;;;;7.15;5.28;;;;;;;9.70;97.10;102730.13;6246930;22;20358;-78
2023/05/31 04:33:04;;;;;;;7.25;5.15;;;;;;;9.78;96.96;102734.28;6247323;22;20102;-78
2023/05/31 04:35:33;;;;;;;6.95;5.38;;;;;;;9.87;96.38;102733.88;6246220;22;20021;-78
2023/05/31 04:38:02;;;;;;;8.25;5.53;;;;;;;9.96;96.40;102736.91;6247219;22;20028;-78
2023/05/31 04:40:31;;;;;;;6.35;4.93;;;;;;;10.12;95.87;102739.84;6246403;22;20023;-78
2023/05/31 04:43:00;;;;;;;6.20;5.22;;;;;;;10.29;95.20;102743.63;6246947;22;20016;-78
2023/05/31 04:45:30;;;;;;;7.03;5.70;;;;;;;11.31;92.66;102742.06;6246283;22;20049;-78
2023/05/31 04:47:57;;;;;;;6.45;5.25;;;;;;;13.00;84.58;102742.94;6247097;22;20044;-77
2023/05/31 04:50:24;;;;;;;6.85;5.25;;;;;;;13.57;79.32;102741.94;6245845;22;20017;-77
2023/05/31 04:52:52;;;;;;;11.63;5.55;;;;;;;13.83;77.57;102742.97;6221986;22;20332;-78
2023/05/31 04:55:19;;;;;;;8.63;5.65;;;;;;;14.35;75.22;102734.97;6246634;22;20151;-78
2023/05/31 04:57:45;;;;;;;9.82;5.55;;;;;;;15.65;70.05;102732.09;6246739;22;20103;-78
2023/05/31 05:00:16;;;;;;;7.45;5.28;;;;;;;16.88;65.58;102741.44;6246887;22;20021;-78
2023/05/31 05:03:13;;;;;;;7.97;5.57;;;;;;;17.88;61.33;102749.50;6235171;22;20021;-78
2023/05/31 05:05:43;;;;;;;6.03;5.28;;;;;;;18.49;59.81;102747.88;6222062;22;20159;-79
2023/05/31 05:08:09;;;;;;;10.23;5.65;;;;;;;19.02;56.79;102747.69;6246641;22;20020;-78
2023/05/31 05:10:38;;;;;;;6.18;5.57;;;;;;;19.16;55.67;102753.25;6246606;22;20023;-79
2023/05/31 05:13:05;;;;;;;6.07;5.38;;;;;;;19.45;54.25;102752.00;6222620;22;20017;-79
2023/05/31 05:15:33;;;;;;;11.93;5.95;;;;;;;19.76;53.57;102751.81;6247896;22;20522;-79
2023/05/31 05:18:00;;;;;;;9.02;6.50;;;;;;;19.96;52.68;102746.63;6249607;22;20196;-79
2023/05/31 05:20:27;;;;;;;8.35;5.97;;;;;;;19.82;52.27;102748.03;6247771;22;20343;-79
2023/05/31 05:22:54;;;;;;;10.07;5.55;;;;;;;19.55;53.28;102756.97;6248249;22;20078;-79
2023/05/31 05:25:22;;;;;;;7.78;6.30;;;;;;;19.74;52.33;102749.56;6247692;22;20021;-80
2023/05/31 05:27:48;;;;;;;7.57;5.90;;;;;;;19.87;52.32;102744.72;6248214;22;20084;-80
2023/05/31 05:30:17;;;;;;;8.70;6.32;;;;;;;20.30;51.34;102753.53;6248018;22;20104;-79
2023/05/31 05:32:44;;;;;;;11.18;6.20;;;;;;;20.28;50.99;102751.28;6247096;22;20092;-81
2023/05/31 05:35:11;;;;;;;8.93;5.68;;;;;;;20.45;50.53;102751.66;6247905;22;20091;-81
2023/05/31 05:37:38;;;;;;;7.00;6.22;;;;;;;20.32;50.75;102745.72;6222601;22;20098;-80
2023/05/31 05:40:07;;;;;;;6.90;5.75;;;;;;;20.30;51.03;102751.59;6248169;22;20450;-80
2023/05/31 05:42:37;;;;;;;7.45;6.32;;;;;;;20.51;50.47;102740.97;6222743;22;20017;-80
2023/05/31 05:45:08;;;;;;;7.82;6.25;;;;;;;20.40;51.14;102746.88;6248045;22;20104;-80
2023/05/31 05:47:37;;;;;;;8.45;6.28;;;;;;;20.10;51.73;102756.03;6247118;22;20044;-79
2023/05/31 05:50:05;;;;;;;8.20;7.00;;;;;;;19.86;51.87;102748.63;6223193;22;20084;-78
2023/05/31 05:52:31;;;;;;;7.68;6.95;;;;;;;19.54;53.26;102758.16;6222603;22;20020;-78
2023/05/31 05:54:58;;;;;;;9.23;6.85;;;;;;;18.96;54.70;102752.94;6222646;22;20020;-78
2023/05/31 05:57:25;;;;;;;14.57;7.03;;;;;;;18.69;55.67;102753.66;6247256;22;20020;-78
2023/05/31 05:59:58;;;;;;;7.95;6.18;;;;;;;18.64;56.13;102746.91;6248083;22;20413;-78
2023/05/31 06:02:25;;;;;;;7.97;6.22;;;;;;;18.62;56.59;102748.56;6246731;22;20104;-78
2023/05/31 06:04:57;;;;;;;9.57;7.13;;;;;;;18.64;56.53;102749.59;6247975;22;20021;-78
2023/05/31 06:07:24;;;;;;;12.57;6.72;;;;;;;18.46;57.55;102757.63;6248812;22;20021;-77
2023/05/31 06:09:52;;;;;;;8.07;6.20;;;;;;;18.37;57.84;102752.22;6248064;22;20072;-77
2023/05/31 06:12:20;;;;;;;9.23;6.68;;;;;;;18.21;58.19;102747.81;6222352;22;20067;-77
2023/05/31 06:14:48;;;;;;;10.10;6.50;;;;;;;18.23;58.20;102750.06;6223356;22;20382;-79
2023/05/31 06:17:14;;;;;;;9.05;7.13;;;;;;;18.37;58.53;102754.16;6247323;22;20013;-77
2023/05/31 06:19:41;;;;;;;6.80;6.10;;;;;;;18.33;58.54;102755.06;6223481;22;20095;-77
2023/05/31 06:22:08;;;;;;;7.22;6.53;;;;;;;18.10;58.95;102752.13;6248363;22;20075;-77
2023/05/31 06:24:36;;;;;;;8.15;6.22;;;;;;;18.09;59.63;102745.97;6223768;22;20025;-77
2023/05/31 06:27:03;;;;;;;8.90;6.68;;;;;;;17.97;59.99;102750.28;6248791;22;20103;-75
2023/05/31 06:29:34;;;;;;;12.55;7.22;;;;;;;17.98;59.35;102751.03;6224699;22;20020;-81
2023/05/31 06:32:06;;;;;;;9.88;6.57;;;;;;;18.11;60.42;102740.13;6223869;22;20020;-77
2023/05/31 06:34:37;;;;;;;9.93;7.10;;;;;;;17.91;59.90;102740.53;6224737;22;20021;-75
2023/05/31 06:37:04;;;;;;;10.43;6.80;;;;;;;17.94;60.62;102739.63;6223724;22;20013;-80
2023/05/31 06:39:30;;;;;;;8.65;6.25;;;;;;;17.95;60.96;102736.50;6250870;22;20350;-82
2023/05/31 06:41:59;;;;;;;9.52;7.03;;;;;;;18.06;60.50;102738.78;6249268;22;20024;-81
2023/05/31 06:44:45;;;;;;;10.15;6.63;;;;;;;18.17;60.74;102739.13;6248831;22;20037;-79
2023/05/31 06:47:36;;;;;;;7.63;6.55;;;;;;;18.29;60.10;102738.28;6248881;22;20020;-79
2023/05/31 06:50:35;;;;;;;9.20;6.32;;;;;;;18.30;60.01;102752.50;6157446;23;20022;-79
2023/05/31 06:53:22;;;;;;;8.27;6.68;;;;;;;18.49;59.59;102739.81;6141607;23;20030;-79
2023/05/31 06:55:54;;;;;;;8.23;6.63;;;;;;;18.41;58.93;102747.41;6157475;23;20105;-82
2023/05/31 06:58:21;;;;;;;10.07;6.78;;;;;;;18.50;58.89;102744.75;6156067;23;20507;-78
2023/05/31 07:00:50;;;;;;;11.90;6.55;;;;;;;18.54;59.21;102741.91;6132305;23;20448;-79
2023/05/31 07:03:17;;;;;;;9.18;6.55;;;;;;;18.55;58.95;102748.81;6131909;23;20022;-76
2023/05/31 07:05:44;;;;;;;6.43;5.75;;;;;;;18.67;59.17;102749.91;6157296;23;20033;-77
2023/05/31 07:08:11;;;;;;;9.27;6.82;;;;;;;18.78;58.34;102748.28;6131840;23;20018;-77
2023/05/31 07:10:56;;;;;;;9.35;6.75;;;;;;;18.65;57.86;102744.97;6157462;23;20376;-78
2023/05/31 07:13:24;;;;;;;9.70;6.45;;;;;;;18.80;58.06;102739.72;6156103;23;20085;-77
2023/05/31 07:15:50;;;;;;;8.07;6.65;;;;;;;18.88;58.01;102746.31;6132280;23;20026;-76
2023/05/31 07:18:17;;;;;;;10.30;6.47;;;;;;;18.98;57.85;102743.19;6131684;23;20029;-77
2023/05/31 07:20:44;;;;;;;9.35;6.25;;;;;;;19.24;57.79;102742.88;6132157;23;20177;-76
2023/05/31 07:23:10;;;;;;;7.50;6.32;;;;;;;19.37;57.16;102743.47;6156627;23;20014;-76
2023/05/31 07:25:37;;;;;;;8.32;6.15;;;;;;;19.36;56.34;102747.34;6178499;22;20100;-79
2023/05/31 07:28:03;;;;;;;7.85;5.43;;;;;;;19.61;57.25;102749.72;6249888;22;20051;-79
2023/05/31 07:30:30;;;;;;;9.15;6.85;;;;;;;19.63;55.92;102744.63;6250629;22;20016;-79
2023/05/31 07:32:56;;;;;;;8.88;6.30;;;;;;;19.79;55.73;102742.78;6250574;22;20043;-79
2023/05/31 07:35:23;;;;;;;11.48;5.72;;;;;;;20.02;56.21;102747.50;6249459;22;20016;-82
2023/05/31 07:37:50;;;;;;;9.35;5.78;;;;;;;20.12;54.86;102746.25;6250658;22;20055;-80
2023/05/31 07:40:16;;;;;;;10.20;6.57;;;;;;;20.29;54.36;102747.38;6250305;22;20013;-81
2023/05/31 07:42:43;;;;;;;7.50;5.40;;;;;;;20.37;53.88;102741.63;6249906;22;20361;-80
2023/05/31 07:45:10;;;;;;;5.97;5.25;;;;;;;20.55;53.44;102749.66;6250326;22;20096;-80
2023/05/31 07:47:37;;;;;;;12.90;5.80;;;;;;;20.69;53.59;102754.38;6250449;22;20012;-81
2023/05/31 07:50:04;;;;;;;11.35;6.50;;;;;;;20.64;52.47;102742.22;6252448;22;20021;-80
2023/05/31 07:52:31;;;;;;;11.90;6.40;;;;;;;20.66;52.69;102736.34;6250871;22;20024;-80
2023/05/31 07:54:57;;;;;;;8.98;5.90;;;;;;;20.91;53.86;102735.84;6250622;22;20016;-81
2023/05/31 07:57:24;;;;;;;6.03;5.53;;;;;;;21.07;52.99;102723.09;6247753;22;20055;-80
2023/05/31 07:59:50;;;;;;;7.80;5.50;;;;;;;21.33;52.26;102718.66;6248769;22;20016;-80
2023/05/31 08:02:17;;;;;;;7.88;6.03;;;;;;;21.58;51.89;102725.47;6250167;22;20453;-82
2023/05/31 08:04:44;;;;;;;7.75;5.93;;;;;;;21.65;51.69;102725.06;6250641;22;20047;-82
2023/05/31 08:07:11;;;;;;;7.03;5.32;;;;;;;21.69;50.51;102717.50;6250143;22;20013;-82
2023/05/31 08:09:37;;;;;;;7.65;5.60;;;;;;;21.76;50.39;102719.81;6248977;22;20017;-82
2023/05/31 08:12:04;;;;;;;7.28;5.35;;;;;;;21.84;49.72;102726.34;6249914;22;20106;-82
2023/05/31 08:14:31;;;;;;;8.07;5.43;;;;;;;21.93;49.62;102715.41;6250362;22;20028;-83
2023/05/31 08:16:57;;;;;;;6.35;4.93;;;;;;;22.07;49.10;102718.56;6250374;22;20017;-82
2023/05/31 08:19:24;;;;;;;6.53;4.90;;;;;;;22.13;49.00;102714.69;6250045;22;20021;-82
2023/05/31 08:21:51;;;;;;;7.68;5.10;;;;;;;22.21;48.25;102715.78;6252559;22;20063;-82
2023/05/31 08:24:18;;;;;;;9.73;5.07;;;;;;;22.34;48.68;102714.72;6250748;22;20051;-82
2023/05/31 08:26:45;;;;;;;7.90;5.10;;;;;;;22.39;49.10;102714.06;6222732;22;20021;-83
2023/05/31 08:29:11;;;;;;;6.13;5.60;;;;;;;22.61;49.27;102714.31;6250157;22;20017;-82
2023/05/31 08:31:38;;;;;;;9.52;5.75;;;;;;;22.80;49.15;102715.50;6250399;22;20416;-83
2023/05/31 08:34:05;;;;;;;10.60;5.93;;;;;;;22.92;48.28;102703.56;6248348;22;20995;-83
2023/05/31 08:36:32;;;;;;;9.85;6.25;;;;;;;22.97;48.67;102712.22;6250461;22;20017;-81
2023/05/31 08:38:58;;;;;;;7.95;6.32;;;;;;;23.09;47.64;102705.69;6250189;22;20462;-81
2023/05/31 08:41:29;;;;;;;6.60;6.00;;;;;;;23.19;47.39;102702.31;6247653;22;20075;-81
2023/05/31 08:43:56;;;;;;;7.03;5.60;;;;;;;23.22;48.46;102706.03;6250101;22;20019;-81
2023/05/31 08:46:25;;;;;;;6.32;5.40;;;;;;;23.31;48.23;102700.44;6247626;22;20040;-81
2023/05/31 08:49:12;;;;;;;7.25;5.95;;;;;;;23.50;47.83;102704.31;6250258;22;20016;-81
2023/05/31 08:51:40;;;;;;;6.45;5.55;;;;;;;23.44;46.98;102706.22;6250198;22;20009;-81
2023/05/31 08:54:08;;;;;;;7.07;6.00;;;;;;;23.52;47.57;102696.41;6249696;22;20048;-82
2023/05/31 08:56:37;;;;;;;12.18;6.25;;;;;;;23.55;46.83;102692.75;6249603;22;20020;-78
2023/05/31 08:59:16;;;;;;;10.35;6.15;;;;;;;23.72;47.48;102698.28;6249216;22;20450;-78
2023/05/31 09:01:43;;;;;;;10.02;5.97;;;;;;;23.72;46.69;102698.28;6249856;22;20016;-79
2023/05/31 09:04:11;;;;;;;6.25;5.65;;;;;;;23.71;46.39;102696.78;6249746;22;20435;-77
2023/05/31 09:06:38;;;;;;;6.50;5.63;;;;;;;23.67;46.27;102696.28;6249928;22;20020;-77
2023/05/31 09:09:08;;;;;;;9.15;5.72;;;;;;;23.73;46.89;102699.78;6249654;22;20071;-78
2023/05/31 09:11:40;;;;;;;7.30;6.15;;;;;;;23.91;46.29;102698.66;6249363;22;20020;-78
2023/05/31 09:14:10;;;;;;;8.27;6.00;;;;;;;23.93;46.25;102696.19;6247847;22;20028;-80
2023/05/31 09:16:37;;;;;;;8.15;6.40;;;;;;;23.81;45.79;102697.34;6248442;22;20044;-79
2023/05/31 09:19:05;;;;;;;7.30;5.88;;;;;;;23.92;46.06;102686.56;6249751;22;20105;-81
2023/05/31 09:21:40;;;;;;;7.85;6.00;;;;;;;24.04;46.13;102685.34;6249863;22;20013;-81
2023/05/31 09:24:07;;;;;;;6.82;5.32;;;;;;;24.30;46.12;102689.97;6249053;22;20501;-80
2023/05/31 09:26:33;;;;;;;9.52;6.20;;;;;;;24.30;45.56;102679.81;6249916;22;20023;-80
2023/05/31 09:29:00;;;;;;;7.85;6.38;;;;;;;24.32;45.07;102687.50;6249775;22;20462;-79
2023/05/31 09:31:27;;;;;;;9.05;5.97;;;;;;;24.46;45.69;102681.84;6249135;22;20023;-79
2023/05/31 09:33:54;;;;;;;7.35;5.85;;;;;;;24.68;45.36;102688.59;6249691;22;20027;-81
2023/05/31 09:36:28;;;;;;;11.18;6.18;;;;;;;24.76;45.00;102678.69;6249503;22;20056;-81
2023/05/31 09:39:00;;;;;;;10.02;6.00;;;;;;;24.87;44.87;102668.53;6248595;22;20020;-80
2023/05/31 09:41:28;;;;;;;36.90;24.75;;;;;;;25.04;44.34;102682.22;6246946;22;20008;-82
2023/05/31 09:43:54;;;;;;;10.40;6.40;;;;;;;25.07;44.15;102680.47;6222080;22;20027;-82
2023/05/31 09:46:22;;;;;;;10.82;6.35;;;;;;;25.00;44.51;102678.25;6248728;22;20526;-83
2023/05/31 09:49:06;;;;;;;7.30;6.38;;;;;;;25.03;44.56;102666.38;6249625;22;20013;-83
2023/05/31 09:51:33;;;;;;;9.85;6.20;;;;;;;25.06;43.91;102665.38;6249587;22;20423;-80
2023/05/31 09:54:06;;;;;;;8.85;6.55;;;;;;;25.04;43.86;102670.56;6247578;22;20017;-81
2023/05/31 09:56:36;;;;;;;7.68;6.05;;;;;;;25.12;43.69;102660.69;6249467;22;20433;-80
2023/05/31 09:59:04;;;;;;;9.80;6.38;;;;;;;25.19;43.15;102660.19;6250446;22;20099;-79
2023/05/31 10:01:32;;;;;;;7.43;5.80;;;;;;;25.16;44.00;102656.47;6251039;22;20088;-81
2023/05/31 10:04:00;;;;;;;8.40;6.32;;;;;;;25.30;43.28;102660.16;6251050;22;20016;-80
2023/05/31 10:06:26;;;;;;;8.65;6.07;;;;;;;25.36;42.76;102655.44;6250358;22;20012;-79
2023/05/31 10:08:53;;;;;;;7.20;5.97;;;;;;;25.23;42.73;102658.66;6250295;22;20088;-80
2023/05/31 10:11:26;;;;;;;8.32;5.78;;;;;;;25.22;42.39;102651.72;6250273;22;20021;-80
2023/05/31 10:14:02;;;;;;;9.45;5.82;;;;;;;25.30;42.86;102646.53;6250884;22;20064;-79
2023/05/31 10:16:36;;;;;;;9.98;6.70;;;;;;;25.26;42.38;102644.03;6250473;22;20135;-79
2023/05/31 10:19:09;;;;;;;8.18;5.80;;;;;;;25.27;43.20;102637.34;6248915;22;20027;-87
2023/05/31 10:21:42;;;;;;;8.07;5.63;;;;;;;25.49;42.80;102644.03;6250693;22;20024;-83
2023/05/31 10:24:14;;;;;;;9.13;5.50;;;;;;;25.72;42.19;102642.00;6248310;22;20437;-82
2023/05/31 10:26:44;;;;;;;7.57;5.88;;;;;;;25.83;41.64;102642.72;6251318;22;20513;-84
2023/05/31 10:29:17;;;;;;;7.35;5.90;;;;;;;26.03;41.55;102638.16;6250534;22;20013;-79
2023/05/31 10:31:49;;;;;;;9.50;5.70;;;;;;;26.11;41.30;102630.94;6250745;22;20088;-80
2023/05/31 10:34:19;;;;;;;7.38;5.70;;;;;;;26.07;40.70;102633.91;6250593;22;20075;-82
2023/05/31 10:36:46;;;;;;;10.90;6.43;;;;;;;26.17;40.51;102632.38;6251110;22;20071;-86
2023/05/31 10:39:28;;;;;;;12.90;5.93;;;;;;;26.35;40.51;102625.63;6250818;22;20071;-86
2023/05/31 10:42:08;;;;;;;6.78;5.45;;;;;;;26.47;40.54;102621.56;6249460;22;20064;-88
2023/05/31 10:44:42;;;;;;;11.05;5.38;;;;;;;26.48;40.83;102623.03;6251394;22;20051;-89
2023/05/31 10:47:12;;;;;;;9.75;5.68;;;;;;;26.46;40.40;102622.06;6249281;22;20447;-89
2023/05/31 10:49:41;;;;;;;12.57;5.45;;;;;;;26.49;40.22;102615.59;6251559;22;20446;-86
2023/05/31 10:52:09;;;;;;;6.95;6.10;;;;;;;26.57;39.55;102614.56;6250043;22;20013;-85
2023/05/31 10:54:38;;;;;;;9.45;5.80;;;;;;;26.47;39.50;102607.91;6249262;22;20048;-83
2023/05/31 10:57:05;;;;;;;9.80;5.32;;;;;;;26.50;40.29;102601.44;6250367;22;20013;-87
2023/05/31 10:59:44;;;;;;;7.38;5.72;;;;;;;26.64;39.31;102601.59;6248590;22;20020;-83
2023/05/31 11:02:11;;;;;;;11.55;6.18;;;;;;;26.46;39.32;102602.97;6250131;22;20067;-84
2023/05/31 11:04:38;;;;;;;9.80;4.78;;;;;;;26.45;39.78;102596.75;6223665;22;20459;-84
2023/05/31 11:07:18;;;;;;;14.20;5.30;;;;;;;26.72;40.21;102605.25;6250073;22;20446;-85
2023/05/31 11:09:56;;;;;;;6.47;5.27;;;;;;;26.71;39.18;102598.31;6253090;22;20094;-82
2023/05/31 11:12:33;;;;;;;9.55;5.10;;;;;;;26.69;39.70;102589.88;6250787;22;20454;-86
2023/05/31 11:15:03;;;;;;;8.73;5.25;;;;;;;26.72;38.82;102586.88;6250579;22;20016;-82
2023/05/31 11:17:40;;;;;;;11.98;4.65;;;;;;;26.92;39.52;102593.91;6248381;22;20096;-83
2023/05/31 11:20:14;;;;;;;10.95;5.25;;;;;;;26.87;38.82;102587.22;6248153;22;20075;-85
2023/05/31 11:22:41;;;;;;;10.80;5.60;;;;;;;26.88;38.62;102585.25;6250754;22;20462;-84
2023/05/31 11:25:09;;;;;;;8.82;5.60;;;;;;;27.00;38.69;102583.19;6249927;22;20048;-84
2023/05/31 11:27:38;;;;;;;5.53;4.60;;;;;;;27.17;38.84;102579.03;6248470;22;20027;-83
2023/05/31 11:30:09;;;;;;;7.90;5.30;;;;;;;27.17;38.66;102570.84;6250071;22;20017;-81
2023/05/31 11:32:36;;;;;;;5.30;4.80;;;;;;;26.95;38.39;102573.00;6250290;22;20013;-84
2023/05/31 11:35:23;;;;;;;11.52;4.97;;;;;;;26.88;38.75;102572.31;6250084;22;20021;-84
2023/05/31 11:37:59;;;;;;;9.45;4.68;;;;;;;27.03;38.79;102571.22;6249446;22;20441;-83